Time;durP1;ratioP1;P1;durP2;ratioP2;P2;SDS_P1;SDS_P2;PMS_P1;PMS_P2;Temp;Humidity;BMP_temperature;BMP_pressure;BME280_temperature;BME280_humidity;BME280_pressure;Samples;Min_cycle;Max_cycle;Signal;HPM_P1;HPM_P2
2023/11/25 00:05:22;;;;;;;27.50;5.73;;;;;;;;;;5024071;28;20048;-88
2023/11/25 00:07:48;;;;;;;13.90;3.90;;;;;;;;;;5009739;28;20100;-86
2023/11/25 00:10:14;;;;;;;19.53;4.50;;;;;;;;;;5022706;28;20265;-87
2023/11/25 00:12:40;;;;;;;16.13;3.30;;;;;;;;;;5019222;28;20041;-86
2023/11/25 00:15:06;;;;;;;16.63;3.67;;;;;;;;;;5024871;28;20030;-87
2023/11/25 00:17:32;;;;;;;8.20;2.77;;;;;;;;;;5017724;28;20100;-86
2023/11/25 00:19:59;;;;;;;15.97;2.77;;;;;;;;;;5017489;28;20030;-84
2023/11/25 00:22:25;;;;;;;10.07;3.00;;;;;;;;;;5003962;28;20500;-90
2023/11/25 00:24:54;;;;;;;13.70;3.17;;;;;;;;;;5015987;28;20040;-87
2023/11/25 00:27:20;;;;;;;15.20;2.37;;;;;;;;;;5000151;28;20072;-87
2023/11/25 00:29:47;;;;;;;11.10;3.27;;;;;;;;;;5000602;28;20033;-86
2023/11/25 00:32:13;;;;;;;18.23;2.63;;;;;;;;;;5017947;28;20042;-86
2023/11/25 00:34:39;;;;;;;7.57;2.33;;;;;;;;;;5004822;28;20037;-88
2023/11/25 00:37:08;;;;;;;12.53;2.70;;;;;;;;;;5002672;28;20026;-87
2023/11/25 00:39:34;;;;;;;13.13;2.80;;;;;;;;;;5022317;28;20056;-87
2023/11/25 00:42:00;;;;;;;13.00;3.50;;;;;;;;;;5037278;28;20121;-86
2023/11/25 00:44:27;;;;;;;13.10;2.20;;;;;;;;;;5035165;28;20036;-89
2023/11/25 00:46:53;;;;;;;22.13;3.00;;;;;;;;;;5018362;28;20365;-89
2023/11/25 00:49:19;;;;;;;16.40;3.20;;;;;;;;;;5021254;28;20029;-85
2023/11/25 00:51:48;;;;;;;19.57;3.27;;;;;;;;;;5041924;28;20030;-86
2023/11/25 00:54:14;;;;;;;9.00;2.30;;;;;;;;;;5039699;28;20037;-88
2023/11/25 00:56:50;;;;;;;;;;;;;;;;;;;;;
2023/11/25 00:59:16;;;;;;;14.47;2.63;;;;;;;;;;5038119;28;20097;-88
2023/11/25 01:01:42;;;;;;;8.83;2.43;;;;;;;;;;5021080;28;20037;-87
2023/11/25 01:04:08;;;;;;;11.77;2.57;;;;;;;;;;5024613;28;20034;-87
2023/11/25 01:06:35;;;;;;;23.10;2.03;;;;;;;;;;5043155;28;20060;-86
2023/11/25 01:09:01;;;;;;;8.83;1.90;;;;;;;;;;5024487;28;20017;-82
2023/11/25 01:11:27;;;;;;;16.03;2.60;;;;;;;;;;5024527;28;20182;-87
2023/11/25 01:13:55;;;;;;;15.03;2.30;;;;;;;;;;5030789;28;20037;-88
2023/11/25 01:16:21;;;;;;;14.17;1.53;;;;;;;;;;5025495;28;20053;-85
2023/11/25 01:18:47;;;;;;;16.33;2.47;;;;;;;;;;5023279;28;20060;-85
2023/11/25 01:21:13;;;;;;;16.70;2.67;;;;;;;;;;5026353;28;20033;-87
2023/11/25 01:23:39;;;;;;;18.30;2.10;;;;;;;;;;5024295;28;20116;-88
2023/11/25 01:26:06;;;;;;;19.83;2.57;;;;;;;;;;5023680;28;20063;-88
2023/11/25 01:28:32;;;;;;;17.97;3.17;;;;;;;;;;5022524;28;20112;-88
2023/11/25 01:30:59;;;;;;;15.13;2.67;;;;;;;;;;5039967;28;20168;-84
2023/11/25 01:33:33;;;;;;;16.80;2.80;;;;;;;;;;5023760;28;20063;-88
2023/11/25 01:36:00;;;;;;;15.23;2.87;;;;;;;;;;5027009;28;20035;-84
2023/11/25 01:38:26;;;;;;;18.10;2.73;;;;;;;;;;5024991;28;20099;-86
2023/11/25 01:40:55;;;;;;;27.87;3.30;;;;;;;;;;5022017;28;20037;-88
2023/11/25 01:43:23;;;;;;;23.80;3.70;;;;;;;;;;5024045;28;20056;-90
2023/11/25 01:45:50;;;;;;;19.33;4.07;;;;;;;;;;5025926;28;20052;-83
2023/11/25 01:48:16;;;;;;;16.90;3.33;;;;;;;;;;5023881;28;20098;-88
2023/11/25 01:50:45;;;;;;;24.80;4.10;;;;;;;;;;5025938;28;20050;-87
2023/11/25 01:53:13;;;;;;;26.93;4.10;;;;;;;;;;5027738;28;20049;-85
2023/11/25 01:55:39;;;;;;;19.40;4.40;;;;;;;;;;5026822;28;20183;-87
2023/11/25 01:58:06;;;;;;;37.00;5.27;;;;;;;;;;5025384;28;20110;-83
2023/11/25 02:00:34;;;;;;;21.67;5.60;;;;;;;;;;5026079;28;20037;-86
2023/11/25 02:03:00;;;;;;;21.77;5.27;;;;;;;;;;5024746;28;20553;-87
2023/11/25 02:05:27;;;;;;;26.53;5.47;;;;;;;;;;5026519;28;20321;-87
2023/11/25 02:07:53;;;;;;;31.00;5.23;;;;;;;;;;5024239;28;20048;-87
2023/11/25 02:10:19;;;;;;;22.27;5.90;;;;;;;;;;5019341;28;20041;-89
2023/11/25 02:12:46;;;;;;;12.57;4.20;;;;;;;;;;5021727;28;20446;-87
2023/11/25 02:15:14;;;;;;;27.27;6.90;;;;;;;;;;5026189;28;20017;-86
2023/11/25 02:17:47;;;;;;;20.07;5.33;;;;;;;;;;5025688;28;20458;-88
2023/11/25 02:20:14;;;;;;;34.07;5.57;;;;;;;;;;5024836;28;20048;-87
2023/11/25 02:22:41;;;;;;;18.00;5.83;;;;;;;;;;5027034;28;20026;-85
2023/11/25 02:25:10;;;;;;;23.53;4.73;;;;;;;;;;5027932;28;20083;-89
2023/11/25 02:27:36;;;;;;;23.20;4.27;;;;;;;;;;5026197;28;20060;-89
2023/11/25 02:30:06;;;;;;;21.47;5.03;;;;;;;;;;5043676;28;20667;-88
2023/11/25 02:32:33;;;;;;;32.07;5.40;;;;;;;;;;5025298;28;20040;-86
2023/11/25 02:35:00;;;;;;;31.13;5.50;;;;;;;;;;5026586;28;20101;-89
2023/11/25 02:37:28;;;;;;;25.20;5.40;;;;;;;;;;5024461;28;20040;-90
2023/11/25 02:39:54;;;;;;;26.27;4.77;;;;;;;;;;5025833;28;20195;-84
2023/11/25 02:42:21;;;;;;;28.47;5.07;;;;;;;;;;5025407;28;20537;-87
2023/11/25 02:44:47;;;;;;;21.27;5.07;;;;;;;;;;5042896;28;20056;-85
2023/11/25 02:47:13;;;;;;;26.97;4.43;;;;;;;;;;5024283;28;20033;-87
2023/11/25 02:49:39;;;;;;;16.07;4.23;;;;;;;;;;5023134;28;20029;-88
2023/11/25 02:52:05;;;;;;;27.63;4.60;;;;;;;;;;5020585;28;20030;-85
2023/11/25 02:54:31;;;;;;;21.07;3.30;;;;;;;;;;5019968;28;20033;-88
2023/11/25 02:56:57;;;;;;;18.83;4.10;;;;;;;;;;5036214;28;20025;-84
2023/11/25 02:59:23;;;;;;;17.93;3.57;;;;;;;;;;5022811;28;20032;-86
2023/11/25 03:01:55;;;;;;;34.67;4.63;;;;;;;;;;5021923;28;20021;-89
2023/11/25 03:04:26;;;;;;;17.37;3.70;;;;;;;;;;5030200;28;20022;-86
2023/11/25 03:06:52;;;;;;;17.73;3.97;;;;;;;;;;5013548;28;20403;-87
2023/11/25 03:09:19;;;;;;;20.20;3.50;;;;;;;;;;5016531;28;20029;-88
2023/11/25 03:11:45;;;;;;;27.93;3.30;;;;;;;;;;5015647;28;20026;-89
2023/11/25 03:14:11;;;;;;;12.37;3.00;;;;;;;;;;5020140;28;20033;-89
2023/11/25 03:16:37;;;;;;;15.27;3.17;;;;;;;;;;5020853;28;20354;-86
2023/11/25 03:19:03;;;;;;;21.93;3.40;;;;;;;;;;5021749;28;20059;-87
2023/11/25 03:21:29;;;;;;;20.70;3.53;;;;;;;;;;5014662;28;20034;-84
2023/11/25 03:23:55;;;;;;;22.97;4.87;;;;;;;;;;5025252;28;20041;-85
2023/11/25 03:26:22;;;;;;;25.63;5.37;;;;;;;;;;5024399;28;20040;-85
2023/11/25 03:28:48;;;;;;;20.60;3.57;;;;;;;;;;5024049;28;20113;-85
2023/11/25 03:31:14;;;;;;;28.73;4.23;;;;;;;;;;5034893;28;20072;-88
2023/11/25 03:33:40;;;;;;;19.57;2.53;;;;;;;;;;5012423;28;20108;-88
2023/11/25 03:36:07;;;;;;;16.77;3.40;;;;;;;;;;5021018;28;20039;-82
2023/11/25 03:38:33;;;;;;;30.63;4.70;;;;;;;;;;5038460;28;20040;-86
2023/11/25 03:40:59;;;;;;;25.93;3.80;;;;;;;;;;5020556;28;20469;-87
2023/11/25 03:43:25;;;;;;;24.47;5.33;;;;;;;;;;5009534;28;20092;-89
2023/11/25 03:45:52;;;;;;;23.17;2.77;;;;;;;;;;5016254;28;20041;-89
2023/11/25 03:48:18;;;;;;;19.67;3.33;;;;;;;;;;5015747;28;20116;-85
2023/11/25 03:50:47;;;;;;;19.40;3.23;;;;;;;;;;5018494;28;20284;-87
2023/11/25 03:53:13;;;;;;;23.03;3.43;;;;;;;;;;5033609;28;20133;-87
2023/11/25 03:55:42;;;;;;;13.23;3.13;;;;;;;;;;5019735;28;20029;-84
2023/11/25 03:58:08;;;;;;;21.70;3.40;;;;;;;;;;5016310;28;20052;-86
2023/11/25 04:00:34;;;;;;;16.77;2.90;;;;;;;;;;5016723;28;20033;-87
2023/11/25 04:03:00;;;;;;;28.60;3.60;;;;;;;;;;5017091;28;20034;-84
2023/11/25 04:05:26;;;;;;;16.43;4.30;;;;;;;;;;5019645;28;20438;-80
2023/11/25 04:07:55;;;;;;;24.17;3.40;;;;;;;;;;5018374;28;20033;-86
2023/11/25 04:10:21;;;;;;;21.03;4.10;;;;;;;;;;5013781;28;20045;-88
2023/11/25 04:12:47;;;;;;;23.90;3.53;;;;;;;;;;5027744;28;20445;-86
2023/11/25 04:15:15;;;;;;;19.87;2.87;;;;;;;;;;5038321;28;20100;-84
2023/11/25 04:17:41;;;;;;;29.07;3.53;;;;;;;;;;5005716;28;20025;-86
2023/11/25 04:20:17;;;;;;;29.67;3.90;;;;;;;;;;5035579;28;20103;-88
2023/11/25 04:22:48;;;;;;;17.00;3.40;;;;;;;;;;5015212;28;20057;-87
2023/11/25 04:25:14;;;;;;;18.53;3.10;;;;;;;;;;5012305;28;20052;-87
2023/11/25 04:27:46;;;;;;;15.53;2.53;;;;;;;;;;5016973;28;20033;-88
2023/11/25 04:30:13;;;;;;;23.73;4.38;;;;;;;;;;5021480;28;20481;-84
2023/11/25 04:32:40;;;;;;;21.60;3.27;;;;;;;;;;5020175;28;20450;-88
2023/11/25 04:35:06;;;;;;;29.03;3.33;;;;;;;;;;5024747;28;20029;-85
2023/11/25 04:37:32;;;;;;;28.47;3.93;;;;;;;;;;5044416;28;20029;-86
2023/11/25 04:40:01;;;;;;;16.77;2.70;;;;;;;;;;5029232;28;20033;-83
2023/11/25 04:42:29;;;;;;;19.60;2.83;;;;;;;;;;5044909;28;20093;-89
2023/11/25 04:44:56;;;;;;;21.40;2.80;;;;;;;;;;5021633;28;20075;-88
2023/11/25 04:47:22;;;;;;;18.90;3.03;;;;;;;;;;5031315;28;20059;-87
2023/11/25 04:49:48;;;;;;;16.27;2.43;;;;;;;;;;5034200;28;20059;-88
2023/11/25 04:52:14;;;;;;;16.87;2.90;;;;;;;;;;5026512;28;20068;-88
2023/11/25 04:54:41;;;;;;;14.03;3.73;;;;;;;;;;5034878;28;20033;-86
2023/11/25 04:57:07;;;;;;;25.70;6.63;;;;;;;;;;5051205;28;20026;-86
2023/11/25 04:59:35;;;;;;;19.53;2.80;;;;;;;;;;5016224;28;20087;-88
2023/11/25 05:02:02;;;;;;;20.13;3.17;;;;;;;;;;5029719;28;20025;-86
2023/11/25 05:04:28;;;;;;;23.03;3.30;;;;;;;;;;5029669;28;20029;-86
2023/11/25 05:06:54;;;;;;;20.13;3.90;;;;;;;;;;5016242;28;20032;-89
2023/11/25 05:09:20;;;;;;;23.03;3.23;;;;;;;;;;5030866;28;20026;-87
2023/11/25 05:11:46;;;;;;;22.37;4.00;;;;;;;;;;5015442;28;20033;-86
2023/11/25 05:14:12;;;;;;;15.03;2.50;;;;;;;;;;5022709;28;20040;-88
2023/11/25 05:16:38;;;;;;;22.60;4.43;;;;;;;;;;5026378;28;20044;-87
2023/11/25 05:19:07;;;;;;;18.07;3.87;;;;;;;;;;5031189;28;20029;-88
2023/11/25 05:21:33;;;;;;;17.23;2.60;;;;;;;;;;5045342;28;20060;-86
2023/11/25 05:23:59;;;;;;;23.40;3.47;;;;;;;;;;5019912;28;20041;-88
2023/11/25 05:26:25;;;;;;;11.77;2.20;;;;;;;;;;5033373;28;20032;-87
2023/11/25 05:28:51;;;;;;;17.47;2.63;;;;;;;;;;5031295;28;20061;-82
2023/11/25 05:31:17;;;;;;;15.47;2.77;;;;;;;;;;5026580;28;20029;-87
2023/11/25 05:33:43;;;;;;;12.97;2.37;;;;;;;;;;5021828;28;20641;-87
2023/11/25 05:36:09;;;;;;;15.63;2.83;;;;;;;;;;5017730;28;20040;-87
2023/11/25 05:38:35;;;;;;;19.30;2.60;;;;;;;;;;5045467;28;20048;-87
2023/11/25 05:41:03;;;;;;;28.03;3.57;;;;;;;;;;5034600;28;20025;-85
2023/11/25 05:43:39;;;;;;;17.80;2.73;;;;;;;;;;5028976;28;20044;-86
2023/11/25 05:46:05;;;;;;;14.00;2.47;;;;;;;;;;5028269;28;20030;-87
2023/11/25 05:48:31;;;;;;;20.93;4.07;;;;;;;;;;5012060;28;20037;-86
2023/11/25 05:50:57;;;;;;;22.87;2.73;;;;;;;;;;5014408;28;20033;-89
2023/11/25 05:53:23;;;;;;;15.80;3.23;;;;;;;;;;5025307;28;20034;-87
2023/11/25 05:55:49;;;;;;;16.87;3.07;;;;;;;;;;5011961;28;20053;-87
2023/11/25 05:58:15;;;;;;;19.53;3.33;;;;;;;;;;5021645;28;20037;-87
2023/11/25 06:00:41;;;;;;;20.80;2.83;;;;;;;;;;5021588;28;20116;-86
2023/11/25 06:03:08;;;;;;;14.00;2.47;;;;;;;;;;5001899;28;20061;-89
2023/11/25 06:05:34;;;;;;;20.47;2.40;;;;;;;;;;5014137;28;20454;-89
2023/11/25 06:08:00;;;;;;;15.53;2.43;;;;;;;;;;5014551;28;20060;-87
2023/11/25 06:10:26;;;;;;;18.43;3.90;;;;;;;;;;5032683;28;20044;-86
2023/11/25 06:12:52;;;;;;;14.43;2.27;;;;;;;;;;5025481;28;20025;-87
2023/11/25 06:15:19;;;;;;;16.50;2.50;;;;;;;;;;5022160;28;20026;-88
2023/11/25 06:17:46;;;;;;;16.73;2.83;;;;;;;;;;5023798;28;20052;-82
2023/11/25 06:20:12;;;;;;;27.10;3.17;;;;;;;;;;5020030;28;20053;-83
2023/11/25 06:22:41;;;;;;;14.60;2.07;;;;;;;;;;5016780;28;20025;-86
2023/11/25 06:25:09;;;;;;;18.33;2.60;;;;;;;;;;5021566;28;20021;-87
2023/11/25 06:27:35;;;;;;;20.67;2.93;;;;;;;;;;5023299;28;20156;-81
2023/11/25 06:30:02;;;;;;;18.63;2.87;;;;;;;;;;5019697;28;20112;-87
2023/11/25 06:32:29;;;;;;;16.27;3.77;;;;;;;;;;5021465;28;20104;-81
2023/11/25 06:34:56;;;;;;;16.00;2.87;;;;;;;;;;5015606;28;20025;-86
2023/11/25 06:37:30;;;;;;;16.03;2.80;;;;;;;;;;5019394;28;20077;-83
2023/11/25 06:39:56;;;;;;;19.40;3.37;;;;;;;;;;5011986;28;20026;-82
2023/11/25 06:42:22;;;;;;;26.77;2.93;;;;;;;;;;5018878;28;20037;-88
2023/11/25 06:44:50;;;;;;;21.50;2.20;;;;;;;;;;5017791;28;20110;-84
2023/11/25 06:47:16;;;;;;;16.70;3.10;;;;;;;;;;5016133;28;20061;-86
2023/11/25 06:49:45;;;;;;;13.23;2.57;;;;;;;;;;5023804;28;20041;-85
2023/11/25 06:52:13;;;;;;;25.63;4.43;;;;;;;;;;5019696;28;20040;-83
2023/11/25 06:54:41;;;;;;;21.53;2.27;;;;;;;;;;5023284;28;20028;-85
2023/11/25 06:57:07;;;;;;;19.10;3.27;;;;;;;;;;5023451;28;20029;-86
2023/11/25 06:59:33;;;;;;;29.67;4.00;;;;;;;;;;5020188;28;20040;-86
2023/11/25 07:01:59;;;;;;;14.77;2.67;;;;;;;;;;5023199;28;20573;-86
2023/11/25 07:04:26;;;;;;;24.23;5.30;;;;;;;;;;5022335;28;20072;-82
2023/11/25 07:06:52;;;;;;;16.10;2.90;;;;;;;;;;5019504;28;20886;-82
2023/11/25 07:09:18;;;;;;;26.07;5.13;;;;;;;;;;5004365;28;20470;-82
2023/11/25 07:11:48;;;;;;;22.13;3.63;;;;;;;;;;5020219;28;20112;-85
2023/11/25 07:14:15;;;;;;;18.30;3.80;;;;;;;;;;5017400;28;20045;-81
2023/11/25 07:16:40;;;;;;;18.97;3.00;;;;;;;;;;5018442;28;20026;-82
2023/11/25 07:19:08;;;;;;;19.10;3.37;;;;;;;;;;5017611;28;20047;-85
2023/11/25 07:21:35;;;;;;;25.00;3.27;;;;;;;;;;5020344;28;20031;-85
2023/11/25 07:24:01;;;;;;;23.40;3.83;;;;;;;;;;5021111;28;20047;-84
2023/11/25 07:26:28;;;;;;;27.00;4.40;;;;;;;;;;5019680;28;20509;-81
2023/11/25 07:28:54;;;;;;;23.20;3.73;;;;;;;;;;5018093;28;20116;-84
2023/11/25 07:31:24;;;;;;;15.33;2.93;;;;;;;;;;5015095;28;20025;-86
2023/11/25 07:33:50;;;;;;;26.20;3.40;;;;;;;;;;5017807;28;20040;-84
2023/11/25 07:36:16;;;;;;;21.10;4.10;;;;;;;;;;5017927;28;20041;-82
2023/11/25 07:38:42;;;;;;;19.00;3.13;;;;;;;;;;5017827;28;20172;-86
2023/11/25 07:41:17;;;;;;;37.07;3.60;;;;;;;;;;5017386;28;20029;-85
2023/11/25 07:43:43;;;;;;;21.13;2.93;;;;;;;;;;5017385;28;20038;-81
2023/11/25 07:46:11;;;;;;;28.60;4.03;;;;;;;;;;5019429;28;20053;-84
2023/11/25 07:48:37;;;;;;;16.83;3.53;;;;;;;;;;5016269;28;20045;-82
2023/11/25 07:51:03;;;;;;;20.53;3.97;;;;;;;;;;5017671;28;20033;-81
2023/11/25 07:53:29;;;;;;;18.70;3.00;;;;;;;;;;5014687;28;20033;-81
2023/11/25 07:55:56;;;;;;;16.87;3.30;;;;;;;;;;5014864;28;20113;-83
2023/11/25 07:58:22;;;;;;;13.63;2.57;;;;;;;;;;5015861;28;20021;-82
2023/11/25 08:00:49;;;;;;;11.67;2.50;;;;;;;;;;5017241;28;20545;-83
2023/11/25 08:03:16;;;;;;;19.47;2.70;;;;;;;;;;5016422;28;20026;-80
2023/11/25 08:06:05;;;;;;;19.87;4.00;;;;;;;;;;5016278;28;20083;-79
2023/11/25 08:08:32;;;;;;;10.80;3.00;;;;;;;;;;5006624;28;20047;-81
2023/11/25 08:11:04;;;;;;;15.13;3.17;;;;;;;;;;5033935;28;20195;-84
2023/11/25 08:13:48;;;;;;;8.98;2.55;;;;;;;;;;5017951;28;20033;-87
2023/11/25 08:16:18;;;;;;;20.03;3.80;;;;;;;;;;5034242;28;20030;-83
2023/11/25 08:18:45;;;;;;;14.63;4.07;;;;;;;;;;5019370;28;20116;-81
2023/11/25 08:21:13;;;;;;;15.27;2.23;;;;;;;;;;5019886;28;20061;-86
2023/11/25 08:23:39;;;;;;;15.90;2.53;;;;;;;;;;5013700;28;20045;-84
2023/11/25 08:26:05;;;;;;;21.23;2.50;;;;;;;;;;4996608;28;20208;-89
2023/11/25 08:28:31;;;;;;;14.93;2.17;;;;;;;;;;4996573;28;20061;-82
2023/11/25 08:30:59;;;;;;;14.07;2.10;;;;;;;;;;4997801;28;20034;-82
2023/11/25 08:33:27;;;;;;;12.87;2.90;;;;;;;;;;4995766;28;20069;-83
2023/11/25 08:35:53;;;;;;;15.23;3.40;;;;;;;;;;4994231;28;20161;-82
2023/11/25 08:38:19;;;;;;;16.90;2.40;;;;;;;;;;4995693;28;20077;-82
2023/11/25 08:40:46;;;;;;;9.60;2.33;;;;;;;;;;4997932;28;20026;-81
2023/11/25 08:43:15;;;;;;;20.07;2.47;;;;;;;;;;4995179;28;20067;-82
2023/11/25 08:45:45;;;;;;;13.03;2.10;;;;;;;;;;5012119;28;20125;-80
2023/11/25 08:48:12;;;;;;;13.40;2.70;;;;;;;;;;4995957;28;20030;-83
2023/11/25 08:50:38;;;;;;;12.63;2.30;;;;;;;;;;5011101;28;20049;-80
2023/11/25 08:53:03;;;;;;;13.17;2.10;;;;;;;;;;4996779;28;20038;-82
2023/11/25 08:55:32;;;;;;;9.03;2.30;;;;;;;;;;5007959;28;20578;-80
2023/11/25 08:57:58;;;;;;;18.23;3.27;;;;;;;;;;5017143;28;20040;-82
2023/11/25 09:00:24;;;;;;;18.87;2.77;;;;;;;;;;5034648;28;20108;-85
2023/11/25 09:02:54;;;;;;;17.53;3.10;;;;;;;;;;5016436;28;20600;-81
2023/11/25 09:05:25;;;;;;;12.97;3.10;;;;;;;;;;5030081;28;20032;-82
2023/11/25 09:07:55;;;;;;;13.93;3.60;;;;;;;;;;5012988;28;20061;-84
2023/11/25 09:10:22;;;;;;;15.87;3.03;;;;;;;;;;5034523;28;20064;-84
2023/11/25 09:12:51;;;;;;;23.23;2.80;;;;;;;;;;5019495;28;20033;-87
2023/11/25 09:15:17;;;;;;;10.53;2.67;;;;;;;;;;5019114;28;20029;-83
2023/11/25 09:17:43;;;;;;;14.60;2.77;;;;;;;;;;5015415;28;20022;-81
2023/11/25 09:20:11;;;;;;;16.37;3.77;;;;;;;;;;5012800;28;20033;-82
2023/11/25 09:22:44;;;;;;;20.90;2.93;;;;;;;;;;5020820;28;20048;-84
2023/11/25 09:25:11;;;;;;;19.00;3.70;;;;;;;;;;5020656;28;20083;-83
2023/11/25 09:27:38;;;;;;;13.30;3.23;;;;;;;;;;5015779;28;20073;-82
2023/11/25 09:30:05;;;;;;;14.53;3.00;;;;;;;;;;5013810;28;20041;-84
2023/11/25 09:32:31;;;;;;;15.83;3.53;;;;;;;;;;5021605;28;20029;-81
2023/11/25 09:34:58;;;;;;;13.13;2.77;;;;;;;;;;5020715;28;20035;-81
2023/11/25 09:37:26;;;;;;;17.30;3.03;;;;;;;;;;5013505;28;20068;-84
2023/11/25 09:39:52;;;;;;;17.17;2.27;;;;;;;;;;5021992;28;20079;-83
2023/11/25 09:42:18;;;;;;;10.80;2.20;;;;;;;;;;5013777;28;20034;-80
2023/11/25 09:44:44;;;;;;;13.67;2.80;;;;;;;;;;5020669;28;20037;-80
2023/11/25 09:47:10;;;;;;;17.33;2.70;;;;;;;;;;5020295;28;20025;-80
2023/11/25 09:49:36;;;;;;;21.50;5.17;;;;;;;;;;5037858;28;20098;-82
2023/11/25 09:52:06;;;;;;;16.77;2.77;;;;;;;;;;5013311;28;20513;-83
2023/11/25 09:54:32;;;;;;;11.67;2.10;;;;;;;;;;5019745;28;20033;-84
2023/11/25 09:56:59;;;;;;;20.00;2.90;;;;;;;;;;5017005;28;20029;-83
2023/11/25 09:59:26;;;;;;;16.87;3.30;;;;;;;;;;5017446;28;20056;-83
2023/11/25 10:01:52;;;;;;;13.23;2.87;;;;;;;;;;5020324;28;20029;-86
2023/11/25 10:04:19;;;;;;;14.10;3.17;;;;;;;;;;5033688;28;20175;-84
2023/11/25 10:06:48;;;;;;;18.67;3.00;;;;;;;;;;5015766;28;20168;-83
2023/11/25 10:09:15;;;;;;;19.30;4.00;;;;;;;;;;5018899;28;20038;-82
2023/11/25 10:11:42;;;;;;;15.93;3.57;;;;;;;;;;5021357;28;20040;-80
2023/11/25 10:14:17;;;;;;;14.07;3.43;;;;;;;;;;5021980;28;20044;-82
2023/11/25 10:16:46;;;;;;;23.17;5.03;;;;;;;;;;5021477;28;20025;-82
2023/11/25 10:19:20;;;;;;;30.37;4.87;;;;;;;;;;5015779;28;20037;-87
2023/11/25 10:21:47;;;;;;;17.37;3.63;;;;;;;;;;5021367;28;20025;-85
2023/11/25 10:24:14;;;;;;;14.00;3.43;;;;;;;;;;5021427;28;21730;-81
2023/11/25 10:26:40;;;;;;;16.77;3.47;;;;;;;;;;5039024;28;20030;-81
2023/11/25 10:29:11;;;;;;;18.07;3.20;;;;;;;;;;5021066;28;20064;-84
2023/11/25 10:31:39;;;;;;;14.93;3.50;;;;;;;;;;5013753;28;20026;-86
2023/11/25 10:34:10;;;;;;;8.83;2.70;;;;;;;;;;5001168;28;20038;-82
2023/11/25 10:36:36;;;;;;;15.77;3.40;;;;;;;;;;5030087;28;20064;-86
2023/11/25 10:39:03;;;;;;;14.90;3.30;;;;;;;;;;5020066;28;20025;-83
2023/11/25 10:41:31;;;;;;;16.60;2.80;;;;;;;;;;5019215;28;20036;-85
2023/11/25 10:43:57;;;;;;;18.50;2.57;;;;;;;;;;5003955;28;20048;-87
2023/11/25 10:46:36;;;;;;;13.77;3.07;;;;;;;;;;5016953;28;20025;-89
2023/11/25 10:49:04;;;;;;;8.10;1.83;;;;;;;;;;5017128;28;20029;-85
2023/11/25 10:51:30;;;;;;;10.93;3.37;;;;;;;;;;5008522;28;20044;-82
2023/11/25 10:53:59;;;;;;;8.37;1.70;;;;;;;;;;5016263;28;20035;-87
2023/11/25 10:56:28;;;;;;;11.77;2.30;;;;;;;;;;5009865;28;20488;-83
2023/11/25 10:58:58;;;;;;;13.43;2.17;;;;;;;;;;5038639;28;20068;-82
2023/11/25 11:01:27;;;;;;;12.87;3.57;;;;;;;;;;5021406;28;20430;-87
2023/11/25 11:04:02;;;;;;;9.80;1.90;;;;;;;;;;5020973;28;20093;-86
2023/11/25 11:06:30;;;;;;;5.97;1.53;;;;;;;;;;5016920;28;20097;-83
2023/11/25 11:08:56;;;;;;;11.00;1.93;;;;;;;;;;5013466;28;20075;-82
2023/11/25 11:11:31;;;;;;;9.80;1.77;;;;;;;;;;5015541;28;20065;-81
2023/11/25 11:14:01;;;;;;;7.20;1.60;;;;;;;;;;5023845;28;20040;-86
2023/11/25 11:16:46;;;;;;;6.00;1.47;;;;;;;;;;5023643;28;20026;-82
2023/11/25 11:19:13;;;;;;;8.23;1.37;;;;;;;;;;5015079;28;20025;-86
2023/11/25 11:21:39;;;;;;;6.67;1.80;;;;;;;;;;5022344;28;20037;-83
2023/11/25 11:24:08;;;;;;;6.43;1.30;;;;;;;;;;5022924;28;20029;-85
2023/11/25 11:27:04;;;;;;;11.63;2.10;;;;;;;;;;5023197;28;20048;-86
2023/11/25 11:29:37;;;;;;;6.33;1.93;;;;;;;;;;5023453;28;20037;-81
2023/11/25 11:32:07;;;;;;;6.03;1.40;;;;;;;;;;5021378;28;20124;-84
2023/11/25 11:34:35;;;;;;;9.70;1.63;;;;;;;;;;5026812;28;20029;-82
2023/11/25 11:37:01;;;;;;;7.57;1.57;;;;;;;;;;5022630;28;20026;-86
2023/11/25 11:39:33;;;;;;;7.70;1.83;;;;;;;;;;5024553;28;20025;-82
2023/11/25 11:42:18;;;;;;;7.97;1.90;;;;;;;;;;5025762;28;20025;-86
2023/11/25 11:48:04;;;;;;;11.43;2.13;;;;;;;;;;5040229;28;20030;-83
2023/11/25 11:50:32;;;;;;;8.67;1.93;;;;;;;;;;5036770;28;20021;-81
2023/11/25 11:53:04;;;;;;;5.53;2.30;;;;;;;;;;5049075;28;20032;-81
2023/11/25 11:55:34;;;;;;;5.63;1.33;;;;;;;;;;5034065;28;20038;-89
2023/11/25 11:58:06;;;;;;;7.70;1.67;;;;;;;;;;5019709;28;20037;-85
2023/11/25 12:00:45;;;;;;;3.65;1.40;;;;;;;;;;5027589;28;20038;-84
2023/11/25 12:03:19;;;;;;;7.97;1.37;;;;;;;;;;5049905;28;20016;-85
2023/11/25 12:05:47;;;;;;;9.63;1.90;;;;;;;;;;5028317;28;20044;-87
2023/11/25 12:08:16;;;;;;;8.13;1.77;;;;;;;;;;5019845;28;20036;-83
2023/11/25 12:10:42;;;;;;;9.97;1.90;;;;;;;;;;5020859;28;20049;-85
2023/11/25 12:13:08;;;;;;;6.13;1.87;;;;;;;;;;5022078;28;20052;-87
2023/11/25 12:15:37;;;;;;;8.33;2.47;;;;;;;;;;5007922;28;20117;-89
2023/11/25 12:18:03;;;;;;;8.63;2.00;;;;;;;;;;5026471;28;20063;-87
2023/11/25 12:20:31;;;;;;;9.40;2.70;;;;;;;;;;5039101;28;20508;-87
2023/11/25 12:23:11;;;;;;;10.13;2.60;;;;;;;;;;5041936;28;20042;-86
2023/11/25 12:25:51;;;;;;;7.57;2.00;;;;;;;;;;5029659;28;20041;-87
2023/11/25 12:44:11;;;;;;;15.60;2.50;;;;;;;;;;4922463;29;20047;-83
2023/11/25 12:46:42;;;;;;;18.83;3.23;;;;;;;;;;4928386;29;20024;-87
2023/11/25 12:49:21;;;;;;;16.40;3.17;;;;;;;;;;4963918;28;20039;-86
2023/11/25 12:51:47;;;;;;;16.07;2.60;;;;;;;;;;4980283;28;20061;-83
2023/11/25 12:54:21;;;;;;;17.93;3.47;;;;;;;;;;4989519;28;20066;-87
2023/11/25 12:56:54;;;;;;;9.50;1.80;;;;;;;;;;4978739;28;20031;-88
2023/11/25 12:59:27;;;;;;;18.73;2.77;;;;;;;;;;4981913;28;20038;-87
2023/11/25 13:01:55;;;;;;;15.10;2.80;;;;;;;;;;4983581;28;20042;-87
2023/11/25 13:04:23;;;;;;;13.33;2.00;;;;;;;;;;4982161;28;20058;-85
2023/11/25 13:06:50;;;;;;;14.47;2.77;;;;;;;;;;4965073;28;20038;-84
2023/11/25 13:09:21;;;;;;;22.07;2.90;;;;;;;;;;4981277;28;20047;-87
2023/11/25 13:11:48;;;;;;;15.80;1.90;;;;;;;;;;4978345;28;20049;-85
2023/11/25 13:14:16;;;;;;;14.23;2.00;;;;;;;;;;4990932;28;20041;-86
2023/11/25 13:16:42;;;;;;;10.97;1.87;;;;;;;;;;5017127;28;20040;-79
2023/11/25 13:19:08;;;;;;;10.77;1.83;;;;;;;;;;5018114;28;20030;-78
2023/11/25 13:21:35;;;;;;;21.93;2.43;;;;;;;;;;5018469;28;20045;-78
2023/11/25 13:24:01;;;;;;;14.77;1.93;;;;;;;;;;5018271;28;20025;-79
2023/11/25 13:26:27;;;;;;;10.73;2.03;;;;;;;;;;5017964;28;20030;-78
2023/11/25 13:28:53;;;;;;;10.37;1.77;;;;;;;;;;5015705;28;20034;-79
2023/11/25 13:31:19;;;;;;;15.60;1.97;;;;;;;;;;5017331;28;20037;-78
2023/11/25 13:33:47;;;;;;;9.97;2.13;;;;;;;;;;5019524;28;20094;-78
2023/11/25 13:36:13;;;;;;;12.43;1.60;;;;;;;;;;5018310;28;20048;-79
2023/11/25 13:38:39;;;;;;;9.97;1.47;;;;;;;;;;5035163;28;21557;-79
2023/11/25 13:41:07;;;;;;;9.87;1.73;;;;;;;;;;5018169;28;20033;-78
2023/11/25 13:43:36;;;;;;;15.40;2.43;;;;;;;;;;5017338;28;20071;-78
2023/11/25 13:46:03;;;;;;;17.43;3.03;;;;;;;;;;5018610;28;20175;-78
2023/11/25 13:48:29;;;;;;;14.60;1.73;;;;;;;;;;5015194;28;20040;-78
2023/11/25 13:50:55;;;;;;;11.63;2.27;;;;;;;;;;5017535;28;20033;-78
2023/11/25 13:53:21;;;;;;;13.97;3.40;;;;;;;;;;5017343;28;20025;-78
2023/11/25 13:55:48;;;;;;;12.87;2.07;;;;;;;;;;5019309;28;20132;-79
2023/11/25 13:58:15;;;;;;;14.07;2.10;;;;;;;;;;5015408;28;20029;-78
2023/11/25 14:00:44;;;;;;;13.10;1.97;;;;;;;;;;5017245;28;20056;-78
2023/11/25 14:03:10;;;;;;;8.30;1.80;;;;;;;;;;5033911;28;20034;-78
2023/11/25 14:05:42;;;;;;;12.37;1.93;;;;;;;;;;5033690;28;20040;-78
2023/11/25 14:08:19;;;;;;;9.13;2.20;;;;;;;;;;5015761;28;20536;-79
2023/11/25 14:10:48;;;;;;;12.90;2.03;;;;;;;;;;5017002;28;20116;-78
2023/11/25 14:13:15;;;;;;;7.47;2.00;;;;;;;;;;5034207;28;20029;-78
2023/11/25 14:15:42;;;;;;;10.97;1.73;;;;;;;;;;5017491;28;20035;-78
2023/11/25 14:18:10;;;;;;;10.57;2.27;;;;;;;;;;5016879;28;20025;-78
2023/11/25 14:20:38;;;;;;;15.33;2.27;;;;;;;;;;5016002;28;20022;-78
2023/11/25 14:23:07;;;;;;;9.77;2.27;;;;;;;;;;5014696;28;20038;-78
2023/11/25 14:25:33;;;;;;;15.07;2.13;;;;;;;;;;5017240;28;20029;-78
2023/11/25 14:28:01;;;;;;;10.83;2.37;;;;;;;;;;5034278;28;20025;-79
2023/11/25 14:30:28;;;;;;;11.10;2.80;;;;;;;;;;5015735;28;20052;-78
2023/11/25 14:32:54;;;;;;;11.03;2.73;;;;;;;;;;5016751;28;20064;-78
2023/11/25 14:35:23;;;;;;;16.10;2.30;;;;;;;;;;5017279;28;20043;-78
2023/11/25 14:37:49;;;;;;;7.50;1.90;;;;;;;;;;5014841;28;20036;-79
2023/11/25 14:40:17;;;;;;;18.67;2.13;;;;;;;;;;5016381;28;20029;-78
2023/11/25 14:42:46;;;;;;;12.23;2.50;;;;;;;;;;5017275;28;20052;-80
2023/11/25 14:45:12;;;;;;;13.87;2.23;;;;;;;;;;5016665;28;20568;-79
2023/11/25 14:47:39;;;;;;;17.47;2.17;;;;;;;;;;5028211;28;20102;-80
2023/11/25 14:50:11;;;;;;;12.57;2.30;;;;;;;;;;5015762;28;20026;-79
2023/11/25 14:52:37;;;;;;;14.35;3.13;;;;;;;;;;5013248;28;20026;-79
2023/11/25 14:55:06;;;;;;;21.07;3.07;;;;;;;;;;5015778;28;21693;-79
2023/11/25 14:57:36;;;;;;;16.80;2.30;;;;;;;;;;5013881;28;20127;-79
2023/11/25 15:00:02;;;;;;;12.43;1.40;;;;;;;;;;5016985;28;20029;-80